createdAt,value
2023-01-21T00:00:57.184Z,98746.56
2023-01-21T00:03:01.797Z,98737.28
2023-01-21T00:05:06.673Z,98739.91
2023-01-21T00:07:11.330Z,98733.13
2023-01-21T00:09:16.011Z,98739.13
2023-01-21T00:11:20.630Z,98735.75
2023-01-21T00:13:27.879Z,98734.94
2023-01-21T00:15:32.533Z,98734.09
2023-01-21T00:17:37.259Z,98729.81
2023-01-21T00:19:42.554Z,98733.97
2023-01-21T00:21:47.231Z,98732.22
2023-01-21T00:23:52.149Z,98734.78
2023-01-21T00:25:59.808Z,98735.53
2023-01-21T00:28:04.396Z,98735.50
2023-01-21T00:30:12.875Z,98745.75
2023-01-21T00:32:17.845Z,98750.84
2023-01-21T00:34:22.399Z,98746.59
2023-01-21T00:36:29.849Z,98743.19
2023-01-21T00:38:34.495Z,98743.19
2023-01-21T00:40:39.060Z,98746.56
2023-01-21T00:42:43.629Z,98748.25
2023-01-21T00:44:48.230Z,98746.59
2023-01-21T00:46:55.385Z,98743.97
2023-01-21T00:49:00.415Z,98750.81
2023-01-21T00:51:05.289Z,98752.53
2023-01-21T00:53:09.834Z,98758.56
2023-01-21T00:55:14.635Z,98759.44
2023-01-21T00:57:19.300Z,98760.34
2023-01-21T00:59:23.967Z,98759.41
2023-01-21T01:01:34.163Z,98758.53
2023-01-21T01:03:41.753Z,98757.72
2023-01-21T01:05:46.298Z,98756.00
2023-01-21T01:07:50.948Z,98762.72
2023-01-21T01:09:55.501Z,98764.44
2023-01-21T01:12:00.116Z,98778.94
2023-01-21T01:14:04.931Z,98770.44
2023-01-21T01:16:09.705Z,98768.78
2023-01-21T01:18:14.272Z,98778.06
2023-01-21T01:20:21.542Z,98783.78
2023-01-21T01:22:26.147Z,98785.44
2023-01-21T01:24:30.803Z,98788.00
2023-01-21T01:26:36.503Z,98795.47
2023-01-21T01:28:41.772Z,98802.25
2023-01-21T01:30:46.497Z,98809.13
2023-01-21T01:32:51.113Z,98809.94
2023-01-21T01:34:55.787Z,98813.50
2023-01-21T01:37:03.025Z,98809.91
2023-01-21T01:39:07.868Z,98811.53
2023-01-21T01:41:16.571Z,98818.41
2023-01-21T01:43:22.112Z,98815.06
2023-01-21T01:45:26.667Z,98816.69
2023-01-21T01:47:33.939Z,98821.84
2023-01-21T01:49:38.536Z,98818.44
2023-01-21T01:51:46.604Z,98825.28
2023-01-21T01:53:54.637Z,98819.34
2023-01-21T01:55:59.876Z,98819.22
2023-01-21T01:58:05.806Z,98816.72
2023-01-21T02:00:12.480Z,98820.97
2023-01-21T02:02:19.207Z,98813.44
2023-01-21T02:04:26.052Z,98812.59
2023-01-21T02:06:30.803Z,98813.38
2023-01-21T02:08:36.478Z,98816.75
2023-01-21T02:10:43.788Z,98815.84
2023-01-21T02:12:48.428Z,98815.78
2023-01-21T02:14:53.168Z,98814.78
2023-01-21T02:17:06.847Z,98814.63
2023-01-21T02:19:26.872Z,98812.94
2023-01-21T02:21:42.654Z,98814.44
2023-01-21T02:24:02.506Z,98810.31
2023-01-21T02:26:23.733Z,98811.19
2023-01-21T02:28:40.661Z,98807.03
2023-01-21T02:31:03.111Z,98807.03
2023-01-21T02:33:22.866Z,98806.22
2023-01-21T02:35:34.358Z,98805.44
2023-01-21T02:37:41.947Z,98806.28
2023-01-21T02:39:53.994Z,98806.38
2023-01-21T02:42:03.812Z,98804.69
2023-01-21T02:44:13.094Z,98801.34
2023-01-21T02:46:21.165Z,98808.19
2023-01-21T02:48:32.005Z,98803.16
2023-01-21T02:50:43.749Z,98792.91
2023-01-21T02:52:48.455Z,98800.56
2023-01-21T02:54:55.231Z,98798.06
2023-01-21T02:56:59.893Z,98799.84
2023-01-21T02:59:06.438Z,98794.84
2023-01-21T03:01:15.525Z,98797.44
2023-01-21T03:03:32.662Z,98788.94
2023-01-21T03:05:44.602Z,98794.06
2023-01-21T03:07:51.460Z,98789.84
2023-01-21T03:09:56.899Z,98788.06
2023-01-21T03:12:09.120Z,98783.84
2023-01-21T03:14:31.176Z,98795.78
2023-01-21T03:16:52.720Z,98783.88
2023-01-21T03:18:59.013Z,98789.88
2023-01-21T03:21:08.533Z,98787.31
2023-01-21T03:23:14.412Z,98788.16
2023-01-21T03:25:20.172Z,98789.88
2023-01-21T03:27:27.131Z,98794.16
2023-01-21T03:29:33.297Z,98787.31
2023-01-21T03:31:39.911Z,98787.34
2023-01-21T03:33:50.240Z,98786.56
2023-01-21T03:35:56.499Z,98782.31
2023-01-21T03:38:06.352Z,98784.88
2023-01-21T03:40:19.263Z,98790.03
2023-01-21T03:42:24.231Z,98789.13
2023-01-21T03:44:29.320Z,98785.78
2023-01-21T03:46:40.190Z,98790.09
2023-01-21T03:48:48.555Z,98784.16
2023-01-21T03:50:56.034Z,98784.16
2023-01-21T03:53:03.268Z,98783.34
2023-01-21T03:55:08.918Z,98783.34
2023-01-21T03:57:13.436Z,98788.53
2023-01-21T03:59:18.013Z,98784.25
2023-01-21T04:01:22.631Z,98790.25
2023-01-21T04:03:27.364Z,98791.16
2023-01-21T04:05:31.965Z,98783.50
2023-01-21T04:07:36.572Z,98788.66
2023-01-21T04:09:43.826Z,98785.22
2023-01-21T04:11:48.396Z,98783.38
2023-01-21T04:13:52.938Z,98788.50
2023-01-21T04:15:57.553Z,98791.03
2023-01-21T04:18:05.072Z,98793.66
2023-01-21T04:20:10.788Z,98789.41
2023-01-21T04:22:15.404Z,98793.69
2023-01-21T04:24:20.051Z,98793.66
2023-01-21T04:26:27.333Z,98787.63
2023-01-21T04:28:31.867Z,98791.03
2023-01-21T04:30:36.469Z,98794.41
2023-01-21T04:32:41.056Z,98790.09
2023-01-21T04:34:45.620Z,98793.47
2023-01-21T04:36:50.331Z,98794.34
2023-01-21T04:38:54.861Z,98790.03
2023-01-21T04:41:00.669Z,98781.41
2023-01-21T04:43:07.829Z,98789.88
2023-01-21T04:45:12.874Z,98790.66
2023-01-21T04:47:17.423Z,98798.34
2023-01-21T04:49:21.992Z,98803.41
2023-01-21T04:51:26.585Z,98800.88
2023-01-21T04:53:31.131Z,98794.94
2023-01-21T04:55:35.823Z,98803.47
2023-01-21T04:57:41.528Z,98798.34
2023-01-21T04:59:48.789Z,98796.63
2023-01-21T05:01:53.473Z,98805.91
2023-01-21T05:03:58.026Z,98805.06
2023-01-21T05:06:03.419Z,98800.78
2023-01-21T05:08:08.325Z,98803.31
2023-01-21T05:10:17.787Z,98806.81
2023-01-21T05:12:22.769Z,98812.75
2023-01-21T05:14:27.600Z,98809.34
2023-01-21T05:16:34.807Z,98812.72
2023-01-21T05:18:39.709Z,98809.38
2023-01-21T05:20:46.363Z,98812.88
2023-01-21T05:22:51.427Z,98810.34
2023-01-21T05:24:56.126Z,98816.34
2023-01-21T05:27:00.685Z,98809.47
2023-01-21T05:29:05.300Z,98805.94
2023-01-21T05:31:10.109Z,98819.56
2023-01-21T05:33:17.351Z,98815.97
2023-01-21T05:35:22.245Z,98821.13
2023-01-21T05:37:26.934Z,98826.25
2023-01-21T05:39:31.507Z,98822.06
2023-01-21T05:41:36.268Z,98832.38
2023-01-21T05:43:40.889Z,98825.56
2023-01-21T05:45:45.614Z,98829.81
2023-01-21T05:47:50.265Z,98823.84
2023-01-21T05:49:57.416Z,98837.56
2023-01-21T05:52:02.039Z,98829.13
2023-01-21T05:54:06.720Z,98827.44
2023-01-21T05:56:11.425Z,98830.84
2023-01-21T05:58:15.980Z,98828.31
2023-01-21T06:00:21.096Z,98827.50
2023-01-21T06:02:25.756Z,98837.03
2023-01-21T06:04:31.142Z,98831.13
2023-01-21T06:06:38.355Z,98835.47
2023-01-21T06:08:42.899Z,98827.84
2023-01-21T06:10:47.557Z,98823.44
2023-01-21T06:12:53.059Z,98822.63
2023-01-21T06:14:57.649Z,98829.41
2023-01-21T06:17:02.375Z,98828.59
2023-01-21T06:19:06.989Z,98830.31
2023-01-21T06:21:11.516Z,98829.53
2023-01-21T06:23:18.678Z,98829.53
2023-01-21T06:25:24.046Z,98823.63
2023-01-21T06:27:28.682Z,98826.13
2023-01-21T06:29:33.344Z,98826.16
2023-01-21T06:31:37.994Z,98819.38
2023-01-21T06:33:42.580Z,98828.84
2023-01-21T06:35:47.576Z,98817.72
2023-01-21T06:37:52.169Z,98824.56
2023-01-21T06:39:59.546Z,98821.94
2023-01-21T06:42:04.143Z,98826.94
2023-01-21T06:44:09.084Z,98838.03
2023-01-21T06:46:14.000Z,98832.97
2023-01-21T06:48:21.963Z,98830.31
2023-01-21T06:50:26.633Z,98826.09
2023-01-21T06:52:31.214Z,98828.72
2023-01-21T06:54:35.833Z,98836.44
2023-01-21T06:56:44.337Z,98826.13
2023-01-21T06:58:51.951Z,98829.53
2023-01-21T07:00:58.443Z,98830.41
2023-01-21T07:03:03.386Z,98838.94
2023-01-21T07:05:08.482Z,98846.69
2023-01-21T07:07:13.126Z,98850.91
2023-01-21T07:09:17.722Z,98852.66
2023-01-21T07:11:22.291Z,98850.97
2023-01-21T07:13:29.633Z,98848.47
2023-01-21T07:15:36.773Z,98854.34
2023-01-21T07:17:41.523Z,98857.78
2023-01-21T07:19:46.125Z,98862.00
2023-01-21T07:21:50.667Z,98858.63
2023-01-21T07:23:55.530Z,98859.53
2023-01-21T07:26:00.221Z,98854.47
2023-01-21T07:28:04.810Z,98861.34
2023-01-21T07:30:13.071Z,98860.38
2023-01-21T07:32:17.742Z,98855.31
2023-01-21T07:34:22.436Z,98863.91
2023-01-21T07:36:27.026Z,98856.28
2023-01-21T07:38:31.696Z,98855.38
2023-01-21T07:40:36.324Z,98849.41
2023-01-21T07:42:40.868Z,98864.84
2023-01-21T07:44:45.533Z,98852.81
2023-01-21T07:46:52.815Z,98854.53
2023-01-21T07:48:57.459Z,98857.94
2023-01-21T07:51:05.397Z,98865.53
2023-01-21T07:53:10.078Z,98860.38
2023-01-21T07:55:15.045Z,98858.66
2023-01-21T07:57:19.758Z,98863.00
2023-01-21T07:59:24.441Z,98856.16
2023-01-21T08:01:31.619Z,98857.88
2023-01-21T08:03:39.385Z,98862.13
2023-01-21T08:05:43.947Z,98857.88
2023-01-21T08:07:48.527Z,98863.13
2023-01-21T08:09:53.219Z,98857.16
2023-01-21T08:11:57.844Z,98857.84
2023-01-21T08:14:02.504Z,98856.25
2023-01-21T08:16:07.634Z,98856.31
2023-01-21T08:18:12.206Z,98852.94
2023-01-21T08:20:19.512Z,98857.28
2023-01-21T08:22:25.960Z,98859.03
2023-01-21T08:24:31.503Z,98859.00
2023-01-21T08:26:36.086Z,98862.44
2023-01-21T08:28:40.828Z,98869.31
2023-01-21T08:30:45.409Z,98863.34
2023-01-21T08:32:50.026Z,98858.19
2023-01-21T08:34:54.590Z,98858.25
2023-01-21T08:37:01.782Z,98860.75
2023-01-21T08:39:06.551Z,98862.47
2023-01-21T08:41:11.191Z,98867.66
2023-01-21T08:43:15.759Z,98865.13
2023-01-21T08:45:20.696Z,98866.88
2023-01-21T08:47:25.440Z,98865.97
2023-01-21T08:49:30.082Z,98872.78
2023-01-21T08:51:34.872Z,98870.91
2023-01-21T08:53:42.245Z,98878.63
2023-01-21T08:55:46.941Z,98878.59
2023-01-21T08:57:53.521Z,98878.53
2023-01-21T08:59:58.231Z,98888.75
2023-01-21T09:02:02.966Z,98904.22
2023-01-21T09:04:07.722Z,98897.38
2023-01-21T09:06:14.054Z,98897.41
2023-01-21T09:08:18.640Z,98900.88
2023-01-21T09:10:38.326Z,98895.78
2023-01-21T09:12:43.339Z,98901.78
2023-01-21T09:14:47.924Z,98907.81
2023-01-21T09:16:53.460Z,98906.16
2023-01-21T09:18:58.057Z,98900.16
2023-01-21T09:21:05.864Z,98907.00
2023-01-21T09:23:24.566Z,98906.13
2023-01-21T09:25:31.881Z,98917.25
2023-01-21T09:27:36.447Z,98906.13
2023-01-21T09:29:41.737Z,98916.44
2023-01-21T09:31:46.485Z,98913.91
2023-01-21T09:33:51.929Z,98921.59
2023-01-21T09:35:56.769Z,98921.53
2023-01-21T09:38:01.453Z,98917.31
2023-01-21T09:40:06.127Z,98920.75
2023-01-21T09:42:20.661Z,98925.03
2023-01-21T09:44:27.577Z,98927.66
2023-01-21T09:46:38.005Z,98925.09
2023-01-21T09:48:44.902Z,98923.44
2023-01-21T09:50:53.303Z,98917.44
2023-01-21T09:53:03.706Z,98925.19
2023-01-21T09:55:15.241Z,98921.72
2023-01-21T09:57:38.967Z,98927.69
2023-01-21T09:59:49.929Z,98925.94
2023-01-21T10:01:59.675Z,98929.34
2023-01-21T10:04:08.224Z,98924.22
2023-01-21T10:06:18.422Z,98927.69
2023-01-21T10:08:26.726Z,98933.69
2023-01-21T10:10:35.163Z,98927.66
2023-01-21T10:12:52.597Z,98928.44
2023-01-21T10:15:07.364Z,98930.09
2023-01-21T10:17:16.895Z,98938.53
2023-01-21T10:19:24.960Z,98941.97
2023-01-21T10:21:33.568Z,98937.75
2023-01-21T10:23:43.861Z,98941.94
2023-01-21T10:25:51.217Z,98936.69
2023-01-21T10:27:59.678Z,98938.25
2023-01-21T10:30:08.995Z,98940.78
2023-01-21T10:32:16.873Z,98947.59
2023-01-21T10:34:22.301Z,98950.91
2023-01-21T10:36:35.673Z,98952.38
2023-01-21T10:38:42.912Z,98952.38
2023-01-21T10:40:53.046Z,98945.56
2023-01-21T10:43:05.940Z,98944.63
2023-01-21T10:45:18.528Z,98951.56
2023-01-21T10:47:30.011Z,98953.25
2023-01-21T10:49:44.516Z,98953.22
2023-01-21T10:51:51.257Z,98960.91
2023-01-21T10:54:02.288Z,98954.22
2023-01-21T10:56:11.947Z,98951.69
2023-01-21T10:58:25.644Z,98950.13
2023-01-21T11:00:32.669Z,98945.91
2023-01-21T11:02:37.304Z,98944.34
2023-01-21T11:04:43.563Z,98942.66
2023-01-21T11:06:49.458Z,98930.75
2023-01-21T11:08:56.235Z,98934.84
2023-01-21T11:11:04.993Z,98941.66
2023-01-21T11:13:13.194Z,98943.41
2023-01-21T11:15:21.335Z,98933.97
2023-01-21T11:17:35.922Z,98938.16
2023-01-21T11:19:40.796Z,98928.78
2023-01-21T11:22:02.119Z,98924.53
2023-01-21T11:24:21.280Z,98929.66
2023-01-21T11:26:28.348Z,98928.72
2023-01-21T11:28:34.566Z,98923.50
2023-01-21T11:30:51.091Z,98915.81
2023-01-21T11:32:56.252Z,98921.75
2023-01-21T11:35:04.908Z,98926.97
2023-01-21T11:37:11.140Z,98915.75
2023-01-21T11:39:17.873Z,98906.50
2023-01-21T11:41:25.215Z,98908.28
2023-01-21T11:43:42.640Z,98908.22
2023-01-21T11:45:52.346Z,98915.84
2023-01-21T11:47:57.303Z,98898.91
2023-01-21T11:50:05.701Z,98894.72
2023-01-21T11:52:17.411Z,98900.69
2023-01-21T11:54:23.453Z,98894.72
2023-01-21T11:56:28.068Z,98899.03
2023-01-21T11:58:34.571Z,98896.47
2023-01-21T12:00:39.260Z,98896.53
2023-01-21T12:02:48.858Z,98894.91
2023-01-21T12:04:55.520Z,98888.06
2023-01-21T12:07:00.856Z,98890.50
2023-01-21T12:09:08.037Z,98892.94
2023-01-21T12:11:12.943Z,98888.78
2023-01-21T12:13:20.262Z,98886.19
2023-01-21T12:15:32.191Z,98883.63
2023-01-21T12:17:44.115Z,98879.38
2023-01-21T12:19:57.869Z,98881.84
2023-01-21T12:22:14.232Z,98876.59
2023-01-21T12:24:24.003Z,98875.72
2023-01-21T12:26:34.339Z,98876.59
2023-01-21T12:28:48.560Z,98877.53
2023-01-21T12:30:58.020Z,98874.13
2023-01-21T12:33:04.532Z,98863.00
2023-01-21T12:35:19.622Z,98863.97
2023-01-21T12:37:26.561Z,98861.50
2023-01-21T12:39:32.261Z,98867.50
2023-01-21T12:41:37.717Z,98866.59
2023-01-21T12:43:43.697Z,98865.81
2023-01-21T12:45:49.938Z,98870.16
2023-01-21T12:47:56.713Z,98861.50
2023-01-21T12:50:07.095Z,98860.72
2023-01-21T12:52:18.271Z,98870.16
2023-01-21T12:54:26.461Z,98870.91
2023-01-21T12:56:35.512Z,98873.34
2023-01-21T12:58:42.658Z,98876.81
2023-01-21T13:00:49.501Z,98872.66
2023-01-21T13:03:04.760Z,98880.38
2023-01-21T13:05:13.853Z,98892.38
2023-01-21T13:07:28.473Z,98882.16
2023-01-21T13:09:36.358Z,98885.66
2023-01-21T13:11:46.645Z,98886.50
2023-01-21T13:14:05.058Z,98885.66
2023-01-21T13:16:10.847Z,98886.56
2023-01-21T13:18:17.595Z,98886.56
2023-01-21T13:20:23.199Z,98882.25
2023-01-21T13:22:34.545Z,98891.66
2023-01-21T13:24:56.064Z,98892.47
2023-01-21T13:27:07.518Z,98883.84
2023-01-21T13:29:17.475Z,98893.25
2023-01-21T13:31:24.338Z,98888.19
2023-01-21T13:33:36.832Z,98889.91
2023-01-21T13:35:47.109Z,98891.72
2023-01-21T13:37:58.691Z,98901.88
2023-01-21T13:40:18.000Z,98895.94
2023-01-21T13:42:32.029Z,98892.50
2023-01-21T13:44:52.368Z,98892.56
2023-01-21T13:47:02.420Z,98900.28
2023-01-21T13:49:22.110Z,98888.25
2023-01-21T13:51:36.443Z,98893.34
2023-01-21T13:53:53.495Z,98888.25
2023-01-21T13:56:01.852Z,98894.19
2023-01-21T13:58:08.733Z,98890.81
2023-01-21T14:00:16.288Z,98884.88
2023-01-21T14:02:23.916Z,98885.78
2023-01-21T14:04:31.779Z,98884.91
2023-01-21T14:06:39.295Z,98889.16
2023-01-21T14:08:48.014Z,98889.16
2023-01-21T14:10:55.128Z,98889.97
2023-01-21T14:13:23.250Z,98886.63
2023-01-21T14:15:46.839Z,98894.38
2023-01-21T14:18:06.196Z,98895.25
2023-01-21T14:20:17.118Z,98895.25
2023-01-21T14:22:35.552Z,98891.84
2023-01-21T14:24:48.620Z,98886.63
2023-01-21T14:27:02.582Z,98893.44
2023-01-21T14:29:11.583Z,98895.16
2023-01-21T14:31:17.890Z,98888.28
2023-01-21T14:33:24.427Z,98901.13
2023-01-21T14:35:33.070Z,98895.19
2023-01-21T14:37:43.965Z,98895.16
2023-01-21T14:39:58.649Z,98896.06
2023-01-21T14:42:05.022Z,98893.47
2023-01-21T14:44:29.582Z,98894.31
2023-01-21T14:46:37.037Z,98898.59
2023-01-21T14:48:42.669Z,98890.06
2023-01-21T14:50:55.238Z,98893.53
2023-01-21T14:52:59.926Z,98898.63
2023-01-21T14:55:05.067Z,98894.34
2023-01-21T14:57:20.508Z,98897.72
2023-01-21T14:59:34.629Z,98897.72
2023-01-21T15:01:47.381Z,98897.69
2023-01-21T15:03:52.953Z,98896.91
2023-01-21T15:06:00.015Z,98901.97
2023-01-21T15:08:07.613Z,98899.41
2023-01-21T15:10:13.525Z,98906.25
2023-01-21T15:12:20.284Z,98892.56
2023-01-21T15:14:26.670Z,98895.13
2023-01-21T15:16:35.902Z,98902.78
2023-01-21T15:18:45.433Z,98890.00
2023-01-21T15:20:51.693Z,98895.94
2023-01-21T15:23:06.476Z,98900.22
2023-01-21T15:25:28.960Z,98897.66
2023-01-21T15:27:34.041Z,98897.69
2023-01-21T15:29:40.066Z,98905.34
2023-01-21T15:31:47.486Z,98898.50
2023-01-21T15:33:56.905Z,98900.97
2023-01-21T15:36:02.769Z,98902.63
2023-01-21T15:38:13.793Z,98912.00
2023-01-21T15:40:21.317Z,98909.41
2023-01-21T15:42:29.761Z,98912.91
2023-01-21T15:44:42.277Z,98912.91
2023-01-21T15:46:51.399Z,98911.19
2023-01-21T15:49:02.921Z,98918.91
2023-01-21T15:51:10.308Z,98930.03
2023-01-21T15:53:32.790Z,98930.06
2023-01-21T15:55:48.812Z,98930.91
2023-01-21T15:57:56.911Z,98925.84
2023-01-21T16:00:10.432Z,98924.09
2023-01-21T16:02:19.202Z,98925.84
2023-01-21T16:04:35.853Z,98933.41
2023-01-21T16:06:47.012Z,98937.66
2023-01-21T16:09:01.997Z,98935.97
2023-01-21T16:11:19.142Z,98938.56
2023-01-21T16:13:29.117Z,98946.28
2023-01-21T16:15:38.926Z,98950.50
2023-01-21T16:17:51.606Z,98950.53
2023-01-21T16:20:01.083Z,98948.00
2023-01-21T16:22:07.883Z,98948.91
2023-01-21T16:24:13.792Z,98946.34
2023-01-21T16:26:26.463Z,98948.03
2023-01-21T16:28:43.366Z,98948.84
2023-01-21T16:30:55.250Z,98949.75
2023-01-21T16:33:09.946Z,98947.19
2023-01-21T16:35:17.452Z,98956.63
2023-01-21T16:37:23.296Z,98947.19
2023-01-21T16:39:28.728Z,98952.34
2023-01-21T16:41:33.327Z,98952.38
2023-01-21T16:43:38.854Z,98945.56
2023-01-21T16:45:50.391Z,98949.88
2023-01-21T16:47:57.066Z,98943.88
2023-01-21T16:50:01.777Z,98950.75
2023-01-21T16:52:09.020Z,98943.09
2023-01-21T16:54:30.893Z,98943.94
2023-01-21T16:56:35.469Z,98938.84
2023-01-21T16:58:49.355Z,98940.50
2023-01-21T17:01:01.469Z,98942.25
2023-01-21T17:03:07.847Z,98945.72
2023-01-21T17:05:16.954Z,98948.28
2023-01-21T17:07:27.864Z,98945.66
2023-01-21T17:09:34.071Z,98945.66
2023-01-21T17:11:39.087Z,98942.25
2023-01-21T17:13:45.030Z,98941.41
2023-01-21T17:15:57.584Z,98941.38
2023-01-21T17:18:05.640Z,98942.28
2023-01-21T17:20:31.030Z,98939.72
2023-01-21T17:22:41.574Z,98937.09
2023-01-21T17:24:55.019Z,98945.59
2023-01-21T17:27:03.260Z,98949.91
2023-01-21T17:29:11.629Z,98949.09
2023-01-21T17:31:25.225Z,98951.69
2023-01-21T17:33:31.025Z,98955.91
2023-01-21T17:35:35.797Z,98949.03
2023-01-21T17:37:55.122Z,98953.22
2023-01-21T17:40:01.038Z,98954.94
2023-01-21T17:42:05.837Z,98960.09
2023-01-21T17:44:18.332Z,98951.53
2023-01-21T17:46:23.173Z,98953.25
2023-01-21T17:48:29.852Z,98956.63
2023-01-21T17:50:35.387Z,98942.94
2023-01-21T17:52:41.138Z,98947.22
2023-01-21T17:54:50.631Z,98955.72
2023-01-21T17:56:56.039Z,98953.22
2023-01-21T17:59:02.725Z,98955.81
2023-01-21T18:01:08.480Z,98950.72
2023-01-21T18:03:13.776Z,98951.63
2023-01-21T18:05:18.604Z,98949.09
2023-01-21T18:07:25.497Z,98961.84
2023-01-21T18:09:30.534Z,98960.06
2023-01-21T18:11:37.749Z,98970.34
2023-01-21T18:13:42.321Z,98967.78
2023-01-21T18:15:49.486Z,98966.94
2023-01-21T18:17:55.936Z,98963.59
2023-01-21T18:20:00.572Z,98965.25
2023-01-21T18:22:06.279Z,98954.13
2023-01-21T18:24:12.903Z,98953.28
2023-01-21T18:26:21.289Z,98949.91
2023-01-21T18:28:30.599Z,98948.94
2023-01-21T18:30:35.289Z,98946.25
2023-01-21T18:32:42.940Z,98948.75
2023-01-21T18:34:47.717Z,98964.09
2023-01-21T18:36:52.316Z,98955.50
2023-01-21T18:38:56.943Z,98958.00
2023-01-21T18:41:01.593Z,98955.34
2023-01-21T18:43:06.209Z,98956.25
2023-01-21T18:45:15.913Z,98957.94
2023-01-21T18:47:22.708Z,98959.59
2023-01-21T18:49:28.735Z,98955.28
2023-01-21T18:51:33.385Z,98960.44
2023-01-21T18:53:37.922Z,98962.97
2023-01-21T18:55:43.901Z,98965.66
2023-01-21T18:57:50.175Z,98963.97
2023-01-21T18:59:54.732Z,98961.38
2023-01-21T19:02:01.995Z,98953.66
2023-01-21T19:04:09.624Z,98945.94
2023-01-21T19:06:17.390Z,98961.28
2023-01-21T19:08:26.812Z,98961.19
2023-01-21T19:10:31.553Z,98968.00
2023-01-21T19:12:36.191Z,98965.41
2023-01-21T19:14:40.751Z,98955.13
2023-01-21T19:16:46.028Z,98957.53
2023-01-21T19:18:53.285Z,98952.44
2023-01-21T19:20:57.887Z,98944.69
2023-01-21T19:23:02.682Z,98951.38
2023-01-21T19:25:07.616Z,98952.28
2023-01-21T19:27:12.710Z,98941.16
2023-01-21T19:29:22.938Z,98941.16
2023-01-21T19:31:27.681Z,98944.53
2023-01-21T19:33:33.528Z,98940.25
2023-01-21T19:35:44.888Z,98939.44
2023-01-21T19:37:51.017Z,98941.22
2023-01-21T19:39:55.669Z,98931.78
2023-01-21T19:42:07.899Z,98921.59
2023-01-21T19:44:13.476Z,98926.78
2023-01-21T19:46:18.327Z,98935.38
2023-01-21T19:48:24.476Z,98939.69
2023-01-21T19:50:29.865Z,98931.16
2023-01-21T19:52:38.182Z,98937.13
2023-01-21T19:54:42.743Z,98926.00
2023-01-21T19:56:50.263Z,98923.38
2023-01-21T19:58:54.909Z,98926.81
2023-01-21T20:00:59.731Z,98923.28
2023-01-21T20:03:04.677Z,98924.88
2023-01-21T20:05:10.308Z,98925.66
2023-01-21T20:07:16.065Z,98937.56
2023-01-21T20:09:23.300Z,98928.16
2023-01-21T20:11:27.971Z,98926.44
2023-01-21T20:13:36.615Z,98927.31
2023-01-21T20:15:41.591Z,98929.88
2023-01-21T20:17:47.877Z,98931.59
2023-01-21T20:19:52.449Z,98932.50
2023-01-21T20:22:02.667Z,98938.50
2023-01-21T20:24:07.870Z,98930.81
2023-01-21T20:26:19.288Z,98930.91
2023-01-21T20:28:24.750Z,98925.81
2023-01-21T20:30:30.893Z,98921.56
2023-01-21T20:32:35.684Z,98933.56
2023-01-21T20:34:40.424Z,98937.78
2023-01-21T20:36:48.456Z,98930.13
2023-01-21T20:38:53.175Z,98931.84
2023-01-21T20:40:57.748Z,98935.38
2023-01-21T20:43:05.037Z,98927.59
2023-01-21T20:45:11.132Z,98935.25
2023-01-21T20:47:19.197Z,98938.72
2023-01-21T20:49:32.711Z,98932.88
2023-01-21T20:51:37.302Z,98935.47
2023-01-21T20:53:42.021Z,98933.81
2023-01-21T20:55:47.865Z,98937.31
2023-01-21T20:57:52.464Z,98938.25
2023-01-21T21:00:01.367Z,98934.72
2023-01-21T21:02:06.050Z,98933.13
2023-01-21T21:04:10.800Z,98939.25
2023-01-21T21:06:16.095Z,98926.38
2023-01-21T21:08:21.644Z,98926.31
2023-01-21T21:10:29.505Z,98932.22
2023-01-21T21:12:34.125Z,98939.13
2023-01-21T21:14:38.760Z,98931.53
2023-01-21T21:16:46.032Z,98930.63
2023-01-21T21:18:50.865Z,98923.72
2023-01-21T21:20:55.451Z,98922.75
2023-01-21T21:23:00.244Z,98931.28
2023-01-21T21:25:04.849Z,98946.69
2023-01-21T21:27:09.386Z,98933.03
2023-01-21T21:29:14.766Z,98945.03
2023-01-21T21:31:20.328Z,98937.34
2023-01-21T21:33:28.204Z,98935.59
2023-01-21T21:35:33.961Z,98939.75
2023-01-21T21:37:38.644Z,98941.47
2023-01-21T21:39:43.197Z,98936.34
2023-01-21T21:42:00.587Z,98939.84
2023-01-21T21:44:05.559Z,98936.47
2023-01-21T21:46:23.400Z,98939.06
2023-01-21T21:48:44.336Z,98933.88
2023-01-21T21:50:49.049Z,98932.16
2023-01-21T21:52:53.675Z,98933.91
2023-01-21T21:54:58.485Z,98934.78
2023-01-21T21:57:03.108Z,98929.69
2023-01-21T21:59:08.170Z,98932.34
2023-01-21T22:01:13.481Z,98927.25
2023-01-21T22:03:18.104Z,98929.91
2023-01-21T22:05:25.335Z,98929.09
2023-01-21T22:07:30.013Z,98929.13
2023-01-21T22:09:35.621Z,98926.59
2023-01-21T22:11:42.602Z,98926.56
2023-01-21T22:13:50.365Z,98917.97
2023-01-21T22:16:00.498Z,98920.53
2023-01-21T22:18:05.103Z,98932.50
2023-01-21T22:20:10.303Z,98927.41
2023-01-21T22:22:17.441Z,98924.88
2023-01-21T22:24:22.612Z,98924.94
2023-01-21T22:26:28.746Z,98914.75
2023-01-21T22:28:33.358Z,98921.59
2023-01-21T22:30:38.118Z,98918.19
2023-01-21T22:32:42.803Z,98917.38
2023-01-21T22:34:47.490Z,98919.03
2023-01-21T22:36:52.887Z,98916.44
2023-01-21T22:39:00.274Z,98912.16
2023-01-21T22:41:05.165Z,98910.44
2023-01-21T22:43:09.804Z,98916.44
2023-01-21T22:45:14.654Z,98921.59
2023-01-21T22:47:19.747Z,98913.06
2023-01-21T22:49:24.337Z,98910.50
2023-01-21T22:51:29.169Z,98911.34
2023-01-21T22:53:36.129Z,98907.88
2023-01-21T22:55:43.289Z,98912.03
2023-01-21T22:57:47.998Z,98911.22
2023-01-21T22:59:52.547Z,98912.06
2023-01-21T23:01:57.146Z,98910.41
2023-01-21T23:04:02.620Z,98906.97
2023-01-21T23:06:07.802Z,98907.00
2023-01-21T23:08:12.768Z,98914.69
2023-01-21T23:10:18.041Z,98914.72
2023-01-21T23:12:28.695Z,98912.16
2023-01-21T23:14:33.527Z,98912.19
2023-01-21T23:16:38.146Z,98911.38
2023-01-21T23:18:42.709Z,98905.34
2023-01-21T23:20:47.284Z,98914.75
2023-01-21T23:22:51.902Z,98902.81
2023-01-21T23:24:56.484Z,98907.13
2023-01-21T23:27:01.087Z,98896.88
2023-01-21T23:29:08.241Z,98904.59
2023-01-21T23:31:14.202Z,98902.84
2023-01-21T23:33:18.895Z,98900.34
2023-01-21T23:35:23.739Z,98894.41
2023-01-21T23:37:29.131Z,98895.28
2023-01-21T23:39:33.759Z,98896.97
2023-01-21T23:41:38.436Z,98892.75
2023-01-21T23:43:43.378Z,98893.59
2023-01-21T23:45:50.556Z,98890.19
2023-01-21T23:47:55.225Z,98885.91
2023-01-21T23:49:59.817Z,98889.31
2023-01-21T23:52:12.302Z,98902.09
2023-01-21T23:54:17.224Z,98890.09
2023-01-21T23:56:23.314Z,98886.69
2023-01-21T23:58:27.876Z,98890.09
